sensor_id;sensor_type;location;lat;lon;timestamp;P1;durP1;ratioP1;P2;durP2;ratioP2
6519;SDS011;3293;51.690;5.982;2022-10-31T00:04:32;18.03;;;12.87;;
6519;SDS011;3293;51.690;5.982;2022-10-31T00:09:32;16.27;;;11.90;;
6519;SDS011;3293;51.690;5.982;2022-10-31T00:14:32;18.90;;;13.63;;
6519;SDS011;3293;51.690;5.982;2022-10-31T00:19:32;17.53;;;12.60;;
6519;SDS011;3293;51.690;5.982;2022-10-31T00:24:32;15.50;;;11.93;;
6519;SDS011;3293;51.690;5.982;2022-10-31T00:29:32;15.97;;;12.10;;
6519;SDS011;3293;51.690;5.982;2022-10-31T00:34:32;19.53;;;12.87;;
6519;SDS011;3293;51.690;5.982;2022-10-31T00:39:32;20.57;;;13.30;;
6519;SDS011;3293;51.690;5.982;2022-10-31T00:44:32;22.23;;;14.90;;
6519;SDS011;3293;51.690;5.982;2022-10-31T00:49:32;20.03;;;14.07;;
6519;SDS011;3293;51.690;5.982;2022-10-31T00:54:32;22.90;;;14.37;;
6519;SDS011;3293;51.690;5.982;2022-10-31T00:59:32;20.50;;;14.10;;
6519;SDS011;3293;51.690;5.982;2022-10-31T01:04:32;20.93;;;14.53;;
6519;SDS011;3293;51.690;5.982;2022-10-31T01:09:32;21.57;;;12.90;;
6519;SDS011;3293;51.690;5.982;2022-10-31T01:14:32;23.03;;;14.03;;
6519;SDS011;3293;51.690;5.982;2022-10-31T01:19:32;20.43;;;13.67;;
6519;SDS011;3293;51.690;5.982;2022-10-31T01:24:32;16.57;;;13.27;;
6519;SDS011;3293;51.690;5.982;2022-10-31T01:29:32;18.30;;;13.50;;
6519;SDS011;3293;51.690;5.982;2022-10-31T01:34:32;18.70;;;13.90;;
6519;SDS011;3293;51.690;5.982;2022-10-31T01:39:32;26.03;;;14.93;;
6519;SDS011;3293;51.690;5.982;2022-10-31T01:49:36;28.13;;;14.80;;
6519;SDS011;3293;51.690;5.982;2022-10-31T01:54:41;24.00;;;15.30;;
6519;SDS011;3293;51.690;5.982;2022-10-31T01:59:47;20.07;;;13.90;;
6519;SDS011;3293;51.690;5.982;2022-10-31T02:04:48;25.57;;;16.03;;
6519;SDS011;3293;51.690;5.982;2022-10-31T02:09:48;21.67;;;14.97;;
6519;SDS011;3293;51.690;5.982;2022-10-31T02:14:50;19.93;;;14.47;;
6519;SDS011;3293;51.690;5.982;2022-10-31T02:30:18;23.80;;;16.63;;
6519;SDS011;3293;51.690;5.982;2022-10-31T02:35:38;24.23;;;16.50;;
6519;SDS011;3293;51.690;5.982;2022-10-31T02:40:51;23.40;;;15.87;;
6519;SDS011;3293;51.690;5.982;2022-10-31T02:46:08;23.70;;;16.63;;
6519;SDS011;3293;51.690;5.982;2022-10-31T02:51:33;26.93;;;16.63;;
6519;SDS011;3293;51.690;5.982;2022-10-31T02:56:33;21.07;;;16.20;;
6519;SDS011;3293;51.690;5.982;2022-10-31T03:11:58;23.93;;;17.13;;
6519;SDS011;3293;51.690;5.982;2022-10-31T03:22:37;28.47;;;19.43;;
6519;SDS011;3293;51.690;5.982;2022-10-31T03:27:41;26.57;;;18.30;;
6519;SDS011;3293;51.690;5.982;2022-10-31T03:32:47;28.20;;;18.20;;
6519;SDS011;3293;51.690;5.982;2022-10-31T03:37:51;28.93;;;18.53;;
6519;SDS011;3293;51.690;5.982;2022-10-31T03:42:58;30.40;;;19.50;;
6519;SDS011;3293;51.690;5.982;2022-10-31T03:48:02;28.57;;;19.43;;
6519;SDS011;3293;51.690;5.982;2022-10-31T03:53:08;30.40;;;20.00;;
6519;SDS011;3293;51.690;5.982;2022-10-31T03:58:17;31.50;;;18.47;;
6519;SDS011;3293;51.690;5.982;2022-10-31T04:03:26;28.37;;;19.93;;
6519;SDS011;3293;51.690;5.982;2022-10-31T04:08:30;29.70;;;20.27;;
6519;SDS011;3293;51.690;5.982;2022-10-31T04:13:33;29.90;;;20.47;;
6519;SDS011;3293;51.690;5.982;2022-10-31T04:18:36;28.60;;;18.67;;
6519;SDS011;3293;51.690;5.982;2022-10-31T04:23:36;28.73;;;18.57;;
6519;SDS011;3293;51.690;5.982;2022-10-31T04:28:36;29.00;;;18.67;;
6519;SDS011;3293;51.690;5.982;2022-10-31T04:33:36;26.70;;;19.43;;
6519;SDS011;3293;51.690;5.982;2022-10-31T04:38:36;26.37;;;17.90;;
6519;SDS011;3293;51.690;5.982;2022-10-31T04:43:36;30.30;;;17.80;;
6519;SDS011;3293;51.690;5.982;2022-10-31T04:48:36;28.27;;;20.80;;
6519;SDS011;3293;51.690;5.982;2022-10-31T04:53:36;27.87;;;19.43;;
6519;SDS011;3293;51.690;5.982;2022-10-31T04:58:36;27.43;;;18.07;;
6519;SDS011;3293;51.690;5.982;2022-10-31T05:03:36;31.60;;;20.50;;
6519;SDS011;3293;51.690;5.982;2022-10-31T05:08:38;29.83;;;20.20;;
6519;SDS011;3293;51.690;5.982;2022-10-31T05:13:38;27.17;;;18.70;;
6519;SDS011;3293;51.690;5.982;2022-10-31T05:18:38;28.40;;;18.80;;
6519;SDS011;3293;51.690;5.982;2022-10-31T05:23:38;29.77;;;18.80;;
6519;SDS011;3293;51.690;5.982;2022-10-31T05:28:38;22.33;;;17.30;;
6519;SDS011;3293;51.690;5.982;2022-10-31T05:33:38;22.23;;;15.90;;
6519;SDS011;3293;51.690;5.982;2022-10-31T05:38:37;21.03;;;15.67;;
6519;SDS011;3293;51.690;5.982;2022-10-31T05:43:37;24.40;;;17.17;;
6519;SDS011;3293;51.690;5.982;2022-10-31T05:48:37;23.83;;;16.77;;
6519;SDS011;3293;51.690;5.982;2022-10-31T05:53:37;25.90;;;16.63;;
6519;SDS011;3293;51.690;5.982;2022-10-31T05:58:37;21.77;;;16.10;;
6519;SDS011;3293;51.690;5.982;2022-10-31T06:03:37;25.90;;;16.17;;
6519;SDS011;3293;51.690;5.982;2022-10-31T06:08:37;23.33;;;17.33;;
6519;SDS011;3293;51.690;5.982;2022-10-31T06:13:37;25.33;;;17.43;;
6519;SDS011;3293;51.690;5.982;2022-10-31T06:18:37;22.60;;;16.10;;
6519;SDS011;3293;51.690;5.982;2022-10-31T06:23:36;23.93;;;15.83;;
6519;SDS011;3293;51.690;5.982;2022-10-31T06:28:36;20.03;;;16.13;;
6519;SDS011;3293;51.690;5.982;2022-10-31T06:33:36;18.17;;;14.63;;
6519;SDS011;3293;51.690;5.982;2022-10-31T06:38:36;25.33;;;17.03;;
6519;SDS011;3293;51.690;5.982;2022-10-31T06:43:36;29.87;;;17.93;;
6519;SDS011;3293;51.690;5.982;2022-10-31T06:48:36;44.70;;;22.77;;
6519;SDS011;3293;51.690;5.982;2022-10-31T06:53:36;41.90;;;22.27;;
6519;SDS011;3293;51.690;5.982;2022-10-31T06:58:36;37.60;;;21.60;;
6519;SDS011;3293;51.690;5.982;2022-10-31T07:03:36;32.30;;;19.30;;
6519;SDS011;3293;51.690;5.982;2022-10-31T07:08:36;35.90;;;19.50;;
6519;SDS011;3293;51.690;5.982;2022-10-31T07:13:36;29.60;;;19.63;;
6519;SDS011;3293;51.690;5.982;2022-10-31T07:18:36;34.60;;;20.37;;
6519;SDS011;3293;51.690;5.982;2022-10-31T07:23:36;36.37;;;22.07;;
6519;SDS011;3293;51.690;5.982;2022-10-31T07:28:36;36.43;;;21.23;;
6519;SDS011;3293;51.690;5.982;2022-10-31T07:33:36;31.40;;;21.13;;
6519;SDS011;3293;51.690;5.982;2022-10-31T07:38:36;35.67;;;21.53;;
6519;SDS011;3293;51.690;5.982;2022-10-31T07:43:36;29.33;;;21.03;;
6519;SDS011;3293;51.690;5.982;2022-10-31T07:48:35;34.67;;;21.73;;
6519;SDS011;3293;51.690;5.982;2022-10-31T07:53:35;28.67;;;20.40;;
6519;SDS011;3293;51.690;5.982;2022-10-31T07:58:36;30.43;;;21.47;;
6519;SDS011;3293;51.690;5.982;2022-10-31T08:03:36;27.97;;;19.83;;
6519;SDS011;3293;51.690;5.982;2022-10-31T08:08:35;29.47;;;20.70;;
6519;SDS011;3293;51.690;5.982;2022-10-31T08:13:36;28.07;;;21.03;;
6519;SDS011;3293;51.690;5.982;2022-10-31T08:18:36;29.43;;;21.90;;
6519;SDS011;3293;51.690;5.982;2022-10-31T08:23:37;27.13;;;21.90;;
6519;SDS011;3293;51.690;5.982;2022-10-31T08:28:37;27.03;;;21.17;;
6519;SDS011;3293;51.690;5.982;2022-10-31T08:33:36;29.00;;;22.63;;
6519;SDS011;3293;51.690;5.982;2022-10-31T08:38:36;30.70;;;20.90;;
6519;SDS011;3293;51.690;5.982;2022-10-31T08:43:36;29.97;;;21.73;;
6519;SDS011;3293;51.690;5.982;2022-10-31T08:48:36;31.87;;;22.53;;
6519;SDS011;3293;51.690;5.982;2022-10-31T08:53:36;34.13;;;23.23;;
6519;SDS011;3293;51.690;5.982;2022-10-31T08:58:36;33.30;;;23.30;;
6519;SDS011;3293;51.690;5.982;2022-10-31T09:03:36;29.97;;;21.87;;
6519;SDS011;3293;51.690;5.982;2022-10-31T09:08:36;29.27;;;22.37;;
6519;SDS011;3293;51.690;5.982;2022-10-31T09:13:36;28.50;;;21.27;;
6519;SDS011;3293;51.690;5.982;2022-10-31T09:18:36;25.20;;;20.47;;
6519;SDS011;3293;51.690;5.982;2022-10-31T09:23:36;32.40;;;22.03;;
6519;SDS011;3293;51.690;5.982;2022-10-31T09:28:36;31.90;;;22.00;;
6519;SDS011;3293;51.690;5.982;2022-10-31T09:33:36;32.83;;;22.37;;
6519;SDS011;3293;51.690;5.982;2022-10-31T09:38:36;32.37;;;21.07;;
6519;SDS011;3293;51.690;5.982;2022-10-31T09:43:49;31.17;;;23.07;;
6519;SDS011;3293;51.690;5.982;2022-10-31T09:59:51;29.00;;;20.00;;
6519;SDS011;3293;51.690;5.982;2022-10-31T10:04:53;34.17;;;21.07;;
6519;SDS011;3293;51.690;5.982;2022-10-31T10:10:12;30.57;;;21.07;;
6519;SDS011;3293;51.690;5.982;2022-10-31T10:15:39;29.43;;;20.47;;
6519;SDS011;3293;51.690;5.982;2022-10-31T10:26:13;30.00;;;21.00;;
6519;SDS011;3293;51.690;5.982;2022-10-31T10:31:25;34.47;;;21.70;;
6519;SDS011;3293;51.690;5.982;2022-10-31T10:36:41;28.80;;;19.77;;
6519;SDS011;3293;51.690;5.982;2022-10-31T10:41:49;29.63;;;19.30;;
6519;SDS011;3293;51.690;5.982;2022-10-31T10:47:08;28.90;;;19.80;;
6519;SDS011;3293;51.690;5.982;2022-10-31T10:52:48;30.83;;;19.23;;
6519;SDS011;3293;51.690;5.982;2022-10-31T10:58:02;34.80;;;18.87;;
6519;SDS011;3293;51.690;5.982;2022-10-31T11:03:05;36.20;;;20.60;;
6519;SDS011;3293;51.690;5.982;2022-10-31T11:08:06;33.40;;;20.77;;
6519;SDS011;3293;51.690;5.982;2022-10-31T11:18:18;32.33;;;20.43;;
6519;SDS011;3293;51.690;5.982;2022-10-31T11:23:21;33.33;;;20.30;;
6519;SDS011;3293;51.690;5.982;2022-10-31T11:28:23;29.37;;;19.63;;
6519;SDS011;3293;51.690;5.982;2022-10-31T11:38:44;33.27;;;21.00;;
6519;SDS011;3293;51.690;5.982;2022-10-31T11:43:46;36.33;;;20.70;;
6519;SDS011;3293;51.690;5.982;2022-10-31T11:48:54;36.47;;;21.10;;
6519;SDS011;3293;51.690;5.982;2022-10-31T11:53:56;31.90;;;20.87;;
6519;SDS011;3293;51.690;5.982;2022-10-31T11:59:02;29.47;;;19.57;;
6519;SDS011;3293;51.690;5.982;2022-10-31T12:04:07;30.37;;;18.43;;
6519;SDS011;3293;51.690;5.982;2022-10-31T12:09:20;32.03;;;18.83;;
6519;SDS011;3293;51.690;5.982;2022-10-31T12:19:50;25.87;;;17.33;;
6519;SDS011;3293;51.690;5.982;2022-10-31T12:25:07;27.73;;;17.83;;
6519;SDS011;3293;51.690;5.982;2022-10-31T12:30:24;26.53;;;18.23;;
6519;SDS011;3293;51.690;5.982;2022-10-31T12:41:06;29.80;;;18.97;;
6519;SDS011;3293;51.690;5.982;2022-10-31T13:02:39;28.97;;;19.13;;
6519;SDS011;3293;51.690;5.982;2022-10-31T13:08:17;26.93;;;17.67;;
6519;SDS011;3293;51.690;5.982;2022-10-31T13:13:44;31.07;;;18.60;;
6519;SDS011;3293;51.690;5.982;2022-10-31T13:24:43;34.67;;;19.70;;
6519;SDS011;3293;51.690;5.982;2022-10-31T13:34:53;32.67;;;19.27;;
6519;SDS011;3293;51.690;5.982;2022-10-31T13:40:07;37.07;;;20.50;;
6519;SDS011;3293;51.690;5.982;2022-10-31T13:45:17;37.13;;;19.87;;
6519;SDS011;3293;51.690;5.982;2022-10-31T13:50:21;36.67;;;21.60;;
6519;SDS011;3293;51.690;5.982;2022-10-31T14:00:45;33.13;;;19.90;;
6519;SDS011;3293;51.690;5.982;2022-10-31T14:05:52;31.47;;;20.20;;
6519;SDS011;3293;51.690;5.982;2022-10-31T14:10:53;37.03;;;22.27;;
6519;SDS011;3293;51.690;5.982;2022-10-31T14:15:56;40.33;;;22.17;;
6519;SDS011;3293;51.690;5.982;2022-10-31T14:21:12;32.83;;;21.13;;
6519;SDS011;3293;51.690;5.982;2022-10-31T14:47:36;42.50;;;24.13;;
6519;SDS011;3293;51.690;5.982;2022-10-31T14:52:43;41.07;;;25.23;;
6519;SDS011;3293;51.690;5.982;2022-10-31T14:57:52;38.87;;;25.23;;
6519;SDS011;3293;51.690;5.982;2022-10-31T15:03:03;32.73;;;22.97;;
6519;SDS011;3293;51.690;5.982;2022-10-31T15:08:05;43.00;;;24.47;;
6519;SDS011;3293;51.690;5.982;2022-10-31T15:13:17;39.67;;;23.83;;
6519;SDS011;3293;51.690;5.982;2022-10-31T15:18:21;40.63;;;22.73;;
6519;SDS011;3293;51.690;5.982;2022-10-31T15:23:26;42.20;;;23.07;;
6519;SDS011;3293;51.690;5.982;2022-10-31T15:28:28;78.47;;;29.63;;
6519;SDS011;3293;51.690;5.982;2022-10-31T15:33:31;51.47;;;25.30;;
6519;SDS011;3293;51.690;5.982;2022-10-31T15:38:38;38.60;;;23.67;;
6519;SDS011;3293;51.690;5.982;2022-10-31T15:43:38;41.17;;;23.03;;
6519;SDS011;3293;51.690;5.982;2022-10-31T15:48:39;37.67;;;23.73;;
6519;SDS011;3293;51.690;5.982;2022-10-31T15:53:45;65.33;;;26.97;;
6519;SDS011;3293;51.690;5.982;2022-10-31T15:58:50;43.93;;;24.63;;
6519;SDS011;3293;51.690;5.982;2022-10-31T16:04:05;41.40;;;24.07;;
6519;SDS011;3293;51.690;5.982;2022-10-31T16:09:21;37.87;;;22.70;;
6519;SDS011;3293;51.690;5.982;2022-10-31T16:14:23;36.33;;;21.40;;
6519;SDS011;3293;51.690;5.982;2022-10-31T16:19:30;36.77;;;21.47;;
6519;SDS011;3293;51.690;5.982;2022-10-31T16:24:34;31.73;;;20.77;;
6519;SDS011;3293;51.690;5.982;2022-10-31T16:29:44;35.17;;;20.37;;
6519;SDS011;3293;51.690;5.982;2022-10-31T16:34:46;31.20;;;20.10;;
6519;SDS011;3293;51.690;5.982;2022-10-31T16:40:01;29.30;;;19.13;;
6519;SDS011;3293;51.690;5.982;2022-10-31T16:45:01;31.83;;;18.40;;
6519;SDS011;3293;51.690;5.982;2022-10-31T16:50:00;34.67;;;19.67;;
6519;SDS011;3293;51.690;5.982;2022-10-31T16:55:00;31.37;;;19.63;;
6519;SDS011;3293;51.690;5.982;2022-10-31T17:00:00;31.30;;;18.20;;
6519;SDS011;3293;51.690;5.982;2022-10-31T17:05:01;27.93;;;16.37;;
6519;SDS011;3293;51.690;5.982;2022-10-31T17:10:00;31.50;;;15.03;;
6519;SDS011;3293;51.690;5.982;2022-10-31T17:15:00;29.07;;;14.63;;
6519;SDS011;3293;51.690;5.982;2022-10-31T17:20:01;22.73;;;14.37;;
6519;SDS011;3293;51.690;5.982;2022-10-31T17:25:12;21.17;;;12.43;;
6519;SDS011;3293;51.690;5.982;2022-10-31T17:30:16;17.33;;;11.10;;
6519;SDS011;3293;51.690;5.982;2022-10-31T17:35:17;19.10;;;12.37;;
6519;SDS011;3293;51.690;5.982;2022-10-31T17:40:18;19.37;;;9.70;;
6519;SDS011;3293;51.690;5.982;2022-10-31T17:45:20;12.07;;;8.67;;
6519;SDS011;3293;51.690;5.982;2022-10-31T17:50:21;16.33;;;7.93;;
6519;SDS011;3293;51.690;5.982;2022-10-31T17:55:24;10.17;;;7.97;;
6519;SDS011;3293;51.690;5.982;2022-10-31T18:00:23;14.23;;;7.17;;
6519;SDS011;3293;51.690;5.982;2022-10-31T18:05:23;14.20;;;6.50;;
6519;SDS011;3293;51.690;5.982;2022-10-31T18:10:23;13.10;;;7.17;;
6519;SDS011;3293;51.690;5.982;2022-10-31T18:15:23;12.00;;;6.53;;
6519;SDS011;3293;51.690;5.982;2022-10-31T18:20:23;11.03;;;6.43;;
6519;SDS011;3293;51.690;5.982;2022-10-31T18:25:23;11.23;;;6.67;;
6519;SDS011;3293;51.690;5.982;2022-10-31T18:30:23;10.90;;;6.20;;
6519;SDS011;3293;51.690;5.982;2022-10-31T18:35:23;12.00;;;6.30;;
6519;SDS011;3293;51.690;5.982;2022-10-31T18:40:23;8.80;;;6.10;;
6519;SDS011;3293;51.690;5.982;2022-10-31T18:45:23;8.47;;;5.77;;
6519;SDS011;3293;51.690;5.982;2022-10-31T18:50:23;12.53;;;6.43;;
6519;SDS011;3293;51.690;5.982;2022-10-31T18:55:24;12.00;;;5.93;;
6519;SDS011;3293;51.690;5.982;2022-10-31T19:00:24;7.80;;;5.83;;
6519;SDS011;3293;51.690;5.982;2022-10-31T19:05:23;14.07;;;6.37;;
6519;SDS011;3293;51.690;5.982;2022-10-31T19:10:23;12.97;;;5.87;;
6519;SDS011;3293;51.690;5.982;2022-10-31T19:15:23;12.07;;;6.43;;
6519;SDS011;3293;51.690;5.982;2022-10-31T19:20:24;9.10;;;6.07;;
6519;SDS011;3293;51.690;5.982;2022-10-31T19:25:24;8.47;;;6.30;;
6519;SDS011;3293;51.690;5.982;2022-10-31T19:30:24;12.87;;;6.00;;
6519;SDS011;3293;51.690;5.982;2022-10-31T19:35:24;12.27;;;6.27;;
6519;SDS011;3293;51.690;5.982;2022-10-31T19:40:24;9.20;;;6.63;;
6519;SDS011;3293;51.690;5.982;2022-10-31T19:45:24;17.47;;;6.63;;
6519;SDS011;3293;51.690;5.982;2022-10-31T19:50:24;12.10;;;6.77;;
6519;SDS011;3293;51.690;5.982;2022-10-31T19:55:26;16.10;;;8.13;;
6519;SDS011;3293;51.690;5.982;2022-10-31T20:00:27;11.10;;;6.97;;
6519;SDS011;3293;51.690;5.982;2022-10-31T20:05:27;13.10;;;7.00;;
6519;SDS011;3293;51.690;5.982;2022-10-31T20:10:27;12.97;;;7.37;;
6519;SDS011;3293;51.690;5.982;2022-10-31T20:15:26;12.30;;;7.43;;
6519;SDS011;3293;51.690;5.982;2022-10-31T20:20:26;12.20;;;7.30;;
6519;SDS011;3293;51.690;5.982;2022-10-31T20:25:26;16.97;;;7.43;;
6519;SDS011;3293;51.690;5.982;2022-10-31T20:30:26;16.60;;;7.60;;
6519;SDS011;3293;51.690;5.982;2022-10-31T20:35:27;16.20;;;7.63;;
6519;SDS011;3293;51.690;5.982;2022-10-31T20:40:31;18.73;;;7.70;;
6519;SDS011;3293;51.690;5.982;2022-10-31T20:45:32;14.77;;;8.17;;
6519;SDS011;3293;51.690;5.982;2022-10-31T20:50:32;13.23;;;7.87;;
6519;SDS011;3293;51.690;5.982;2022-10-31T20:55:32;11.87;;;7.07;;
6519;SDS011;3293;51.690;5.982;2022-10-31T21:00:32;11.03;;;7.10;;
6519;SDS011;3293;51.690;5.982;2022-10-31T21:05:32;14.17;;;6.93;;
6519;SDS011;3293;51.690;5.982;2022-10-31T21:10:32;16.20;;;7.37;;
6519;SDS011;3293;51.690;5.982;2022-10-31T21:15:32;12.30;;;6.70;;
6519;SDS011;3293;51.690;5.982;2022-10-31T21:20:32;12.93;;;6.90;;
6519;SDS011;3293;51.690;5.982;2022-10-31T21:25:35;9.87;;;6.80;;
6519;SDS011;3293;51.690;5.982;2022-10-31T21:30:43;10.90;;;7.50;;
6519;SDS011;3293;51.690;5.982;2022-10-31T21:35:48;12.07;;;6.83;;
6519;SDS011;3293;51.690;5.982;2022-10-31T21:40:49;15.33;;;7.20;;
6519;SDS011;3293;51.690;5.982;2022-10-31T21:46:06;11.10;;;6.57;;
6519;SDS011;3293;51.690;5.982;2022-10-31T21:51:09;13.57;;;7.13;;
6519;SDS011;3293;51.690;5.982;2022-10-31T21:56:14;13.20;;;6.70;;
6519;SDS011;3293;51.690;5.982;2022-10-31T22:01:14;11.03;;;6.67;;
6519;SDS011;3293;51.690;5.982;2022-10-31T22:06:14;13.87;;;6.70;;
6519;SDS011;3293;51.690;5.982;2022-10-31T22:11:15;14.57;;;7.53;;
6519;SDS011;3293;51.690;5.982;2022-10-31T22:16:17;13.47;;;6.70;;
6519;SDS011;3293;51.690;5.982;2022-10-31T22:21:20;14.47;;;6.97;;
6519;SDS011;3293;51.690;5.982;2022-10-31T22:26:24;11.33;;;7.03;;
6519;SDS011;3293;51.690;5.982;2022-10-31T22:31:25;11.70;;;6.67;;
6519;SDS011;3293;51.690;5.982;2022-10-31T22:36:27;19.47;;;6.87;;
6519;SDS011;3293;51.690;5.982;2022-10-31T22:41:30;13.60;;;7.00;;
6519;SDS011;3293;51.690;5.982;2022-10-31T22:46:32;11.67;;;6.07;;
6519;SDS011;3293;51.690;5.982;2022-10-31T22:51:35;13.10;;;6.50;;
6519;SDS011;3293;51.690;5.982;2022-10-31T22:56:36;9.30;;;6.63;;
6519;SDS011;3293;51.690;5.982;2022-10-31T23:01:36;8.53;;;6.37;;
6519;SDS011;3293;51.690;5.982;2022-10-31T23:06:36;12.03;;;5.97;;
6519;SDS011;3293;51.690;5.982;2022-10-31T23:11:37;14.53;;;6.87;;
6519;SDS011;3293;51.690;5.982;2022-10-31T23:16:43;12.33;;;7.53;;
6519;SDS011;3293;51.690;5.982;2022-10-31T23:21:54;14.53;;;6.80;;
6519;SDS011;3293;51.690;5.982;2022-10-31T23:26:58;12.10;;;5.93;;
6519;SDS011;3293;51.690;5.982;2022-10-31T23:32:07;10.40;;;6.50;;
6519;SDS011;3293;51.690;5.982;2022-10-31T23:37:27;11.97;;;6.37;;
6519;SDS011;3293;51.690;5.982;2022-10-31T23:42:29;18.03;;;6.50;;
6519;SDS011;3293;51.690;5.982;2022-10-31T23:47:29;12.23;;;6.40;;
6519;SDS011;3293;51.690;5.982;2022-10-31T23:52:29;19.97;;;6.50;;
6519;SDS011;3293;51.690;5.982;2022-10-31T23:57:28;9.07;;;6.77;;
